sensor_id;sensor_type;location;lat;lon;timestamp;pressure;altitude;pressure_sealevel;temperature;humidity
6938;BME280;40040;42.706;23.372;2023-03-23T00:01:13;145599.88;;;5.76;100.00
6938;BME280;40040;42.706;23.372;2023-03-23T00:03:45;145567.97;;;5.63;100.00
6938;BME280;40040;42.706;23.372;2023-03-23T00:06:13;145565.47;;;5.62;100.00
6938;BME280;40040;42.706;23.372;2023-03-23T00:08:43;145560.56;;;5.60;100.00
6938;BME280;40040;42.706;23.372;2023-03-23T00:11:13;145593.75;;;5.73;100.00
6938;BME280;40040;42.706;23.372;2023-03-23T00:13:41;145577.75;;;5.67;100.00
6938;BME280;40040;42.706;23.372;2023-03-23T00:16:09;145560.56;;;5.60;100.00
6938;BME280;40040;42.706;23.372;2023-03-23T00:18:43;145545.84;;;5.54;100.00
6938;BME280;40040;42.706;23.372;2023-03-23T00:21:10;145494.22;;;5.33;100.00
6938;BME280;40040;42.706;23.372;2023-03-23T00:23:37;145542.16;;;5.52;100.00
6938;BME280;40040;42.706;23.372;2023-03-23T00:26:05;145548.28;;;5.55;100.00
6938;BME280;40040;42.706;23.372;2023-03-23T00:28:33;145551.94;;;5.56;100.00
6938;BME280;40040;42.706;23.372;2023-03-23T00:31:02;145551.94;;;5.56;100.00
6938;BME280;40040;42.706;23.372;2023-03-23T00:33:31;145565.47;;;5.62;100.00
6938;BME280;40040;42.706;23.372;2023-03-23T00:35:59;145567.97;;;5.63;100.00
6938;BME280;40040;42.706;23.372;2023-03-23T00:38:26;145542.16;;;5.52;100.00
6938;BME280;40040;42.706;23.372;2023-03-23T00:40:53;145566.72;;;5.62;100.00
6938;BME280;40040;42.706;23.372;2023-03-23T00:43:23;145462.25;;;5.20;100.00
6938;BME280;40040;42.706;23.372;2023-03-23T00:45:56;145486.88;;;5.30;100.00
6938;BME280;40040;42.706;23.372;2023-03-23T00:48:27;145465.94;;;5.21;100.00
6938;BME280;40040;42.706;23.372;2023-03-23T00:50:54;145504.06;;;5.37;100.00
6938;BME280;40040;42.706;23.372;2023-03-23T00:53:21;145492.97;;;5.32;100.00
6938;BME280;40040;42.706;23.372;2023-03-23T00:55:48;145504.06;;;5.37;100.00
6938;BME280;40040;42.706;23.372;2023-03-23T00:58:16;145448.78;;;5.14;100.00
6938;BME280;40040;42.706;23.372;2023-03-23T01:00:43;145484.38;;;5.29;100.00
6938;BME280;40040;42.706;23.372;2023-03-23T01:03:11;145495.47;;;5.33;100.00
6938;BME280;40040;42.706;23.372;2023-03-23T01:05:43;145501.59;;;5.36;100.00
6938;BME280;40040;42.706;23.372;2023-03-23T01:08:12;145500.34;;;5.35;100.00
6938;BME280;40040;42.706;23.372;2023-03-23T01:10:40;145501.59;;;5.36;100.00
6938;BME280;40040;42.706;23.372;2023-03-23T01:13:07;145479.47;;;5.27;100.00
6938;BME280;40040;42.706;23.372;2023-03-23T01:15:34;145474.53;;;5.25;100.00
6938;BME280;40040;42.706;23.372;2023-03-23T01:18:02;145414.41;;;5.00;100.00
6938;BME280;40040;42.706;23.372;2023-03-23T01:20:32;145447.53;;;5.14;100.00
6938;BME280;40040;42.706;23.372;2023-03-23T01:22:59;145451.22;;;5.15;100.00
6938;BME280;40040;42.706;23.372;2023-03-23T01:25:27;145454.91;;;5.17;100.00
6938;BME280;40040;42.706;23.372;2023-03-23T01:27:55;145446.31;;;5.13;100.00
6938;BME280;40040;42.706;23.372;2023-03-23T01:30:23;145442.63;;;5.12;100.00
6938;BME280;40040;42.706;23.372;2023-03-23T01:32:51;145464.75;;;5.21;100.00
6938;BME280;40040;42.706;23.372;2023-03-23T01:35:18;145434.03;;;5.08;100.00
6938;BME280;40040;42.706;23.372;2023-03-23T01:37:46;145403.31;;;4.96;100.00
6938;BME280;40040;42.706;23.372;2023-03-23T01:40:14;145425.44;;;5.05;100.00
6938;BME280;40040;42.706;23.372;2023-03-23T01:42:41;145403.31;;;4.96;100.00
6938;BME280;40040;42.706;23.372;2023-03-23T01:48:05;145443.88;;;5.12;100.00
6938;BME280;40040;42.706;23.372;2023-03-23T01:50:37;145437.72;;;5.10;100.00
6938;BME280;40040;42.706;23.372;2023-03-23T01:53:08;145474.53;;;5.25;100.00
6938;BME280;40040;42.706;23.372;2023-03-23T01:55:38;145499.16;;;5.35;100.00
6938;BME280;40040;42.706;23.372;2023-03-23T01:58:08;145474.53;;;5.25;100.00
6938;BME280;40040;42.706;23.372;2023-03-23T02:00:36;145523.72;;;5.45;100.00
6938;BME280;40040;42.706;23.372;2023-03-23T02:03:06;145486.88;;;5.30;100.00
6938;BME280;40040;42.706;23.372;2023-03-23T02:05:38;145472.09;;;5.24;100.00
6938;BME280;40040;42.706;23.372;2023-03-23T02:08:07;145418.06;;;5.02;100.00
6938;BME280;40040;42.706;23.372;2023-03-23T02:10:36;145458.59;;;5.18;100.00
6938;BME280;40040;42.706;23.372;2023-03-23T02:13:05;145467.19;;;5.22;100.00
6938;BME280;40040;42.706;23.372;2023-03-23T02:15:39;145457.34;;;5.18;100.00
6938;BME280;40040;42.706;23.372;2023-03-23T02:18:11;145440.19;;;5.11;100.00
6938;BME280;40040;42.706;23.372;2023-03-23T02:21:01;145430.34;;;5.07;100.00
6938;BME280;40040;42.706;23.372;2023-03-23T02:23:58;145414.41;;;5.00;100.00
6938;BME280;40040;42.706;23.372;2023-03-23T02:26:38;145445.06;;;5.13;100.00
6938;BME280;40040;42.706;23.372;2023-03-23T02:29:29;145410.66;;;4.99;100.00
6938;BME280;40040;42.706;23.372;2023-03-23T02:32:16;145387.38;;;4.89;100.00
6938;BME280;40040;42.706;23.372;2023-03-23T02:34:51;145410.66;;;4.99;100.00
6938;BME280;40040;42.706;23.372;2023-03-23T02:37:22;145397.19;;;4.93;100.00
6938;BME280;40040;42.706;23.372;2023-03-23T02:39:52;145389.78;;;4.90;100.00
6938;BME280;40040;42.706;23.372;2023-03-23T02:42:25;145371.41;;;4.83;100.00
6938;BME280;40040;42.706;23.372;2023-03-23T02:44:54;145365.25;;;4.80;100.00
6938;BME280;40040;42.706;23.372;2023-03-23T02:47:24;145344.38;;;4.72;100.00
6938;BME280;40040;42.706;23.372;2023-03-23T02:49:55;145329.63;;;4.66;100.00
6938;BME280;40040;42.706;23.372;2023-03-23T02:52:26;145316.16;;;4.60;100.00
6938;BME280;40040;42.706;23.372;2023-03-23T02:54:55;145302.66;;;4.54;100.00
6938;BME280;40040;42.706;23.372;2023-03-23T02:57:24;145311.25;;;4.58;100.00
6938;BME280;40040;42.706;23.372;2023-03-23T02:59:52;145295.28;;;4.51;100.00
6938;BME280;40040;42.706;23.372;2023-03-23T03:02:21;145318.59;;;4.61;100.00
6938;BME280;40040;42.706;23.372;2023-03-23T03:04:55;145327.19;;;4.65;100.00
6938;BME280;40040;42.706;23.372;2023-03-23T03:07:51;145322.28;;;4.63;100.00
6938;BME280;40040;42.706;23.372;2023-03-23T03:10:25;145281.78;;;4.46;100.00
6938;BME280;40040;42.706;23.372;2023-03-23T03:12:57;145263.34;;;4.38;100.00
6938;BME280;40040;42.706;23.372;2023-03-23T03:15:30;145265.78;;;4.39;100.00
6938;BME280;40040;42.706;23.372;2023-03-23T03:18:06;145242.50;;;4.30;100.00
6938;BME280;40040;42.706;23.372;2023-03-23T03:20:41;145236.34;;;4.27;100.00
6938;BME280;40040;42.706;23.372;2023-03-23T03:23:11;145214.28;;;4.18;100.00
6938;BME280;40040;42.706;23.372;2023-03-23T03:25:40;145222.88;;;4.22;100.00
6938;BME280;40040;42.706;23.372;2023-03-23T03:28:13;145244.94;;;4.31;100.00
6938;BME280;40040;42.706;23.372;2023-03-23T03:30:42;145228.97;;;4.24;100.00
6938;BME280;40040;42.706;23.372;2023-03-23T03:33:10;145248.59;;;4.32;100.00
6938;BME280;40040;42.706;23.372;2023-03-23T03:35:40;145233.91;;;4.26;100.00
6938;BME280;40040;42.706;23.372;2023-03-23T03:38:09;145116.09;;;3.78;100.00
6938;BME280;40040;42.706;23.372;2023-03-23T03:40:37;145206.88;;;4.15;100.00
6938;BME280;40040;42.706;23.372;2023-03-23T03:43:04;145194.63;;;4.10;100.00
6938;BME280;40040;42.706;23.372;2023-03-23T03:45:32;145231.41;;;4.25;100.00
6938;BME280;40040;42.706;23.372;2023-03-23T03:47:59;145242.50;;;4.30;100.00
6938;BME280;40040;42.706;23.372;2023-03-23T03:50:27;145290.38;;;4.49;100.00
6938;BME280;40040;42.706;23.372;2023-03-23T03:52:55;145307.56;;;4.56;100.00
6938;BME280;40040;42.706;23.372;2023-03-23T03:55:23;145268.28;;;4.40;100.00
6938;BME280;40040;42.706;23.372;2023-03-23T03:57:50;145314.91;;;4.59;100.00
6938;BME280;40040;42.706;23.372;2023-03-23T04:00:17;145323.50;;;4.63;100.00
6938;BME280;40040;42.706;23.372;2023-03-23T04:02:46;145322.28;;;4.63;100.00
6938;BME280;40040;42.706;23.372;2023-03-23T04:05:17;145327.19;;;4.65;100.00
6938;BME280;40040;42.706;23.372;2023-03-23T04:07:45;145332.09;;;4.67;100.00
6938;BME280;40040;42.706;23.372;2023-03-23T04:10:16;145310.00;;;4.57;100.00
6938;BME280;40040;42.706;23.372;2023-03-23T04:12:45;145301.41;;;4.54;100.00
6938;BME280;40040;42.706;23.372;2023-03-23T04:15:11;145312.44;;;4.58;100.00
6938;BME280;40040;42.706;23.372;2023-03-23T04:17:39;145346.81;;;4.73;100.00
6938;BME280;40040;42.706;23.372;2023-03-23T04:20:07;145324.75;;;4.64;100.00
6938;BME280;40040;42.706;23.372;2023-03-23T04:22:40;145356.66;;;4.77;100.00
6938;BME280;40040;42.706;23.372;2023-03-23T04:25:10;145328.44;;;4.65;100.00
6938;BME280;40040;42.706;23.372;2023-03-23T04:27:39;145402.06;;;4.95;100.00
6938;BME280;40040;42.706;23.372;2023-03-23T04:30:09;145420.50;;;5.03;100.00
6938;BME280;40040;42.706;23.372;2023-03-23T04:32:36;145429.13;;;5.06;100.00
6938;BME280;40040;42.706;23.372;2023-03-23T04:35:06;145388.59;;;4.90;100.00
6938;BME280;40040;42.706;23.372;2023-03-23T04:37:34;145437.72;;;5.10;100.00
6938;BME280;40040;42.706;23.372;2023-03-23T04:40:00;145447.53;;;5.14;100.00
6938;BME280;40040;42.706;23.372;2023-03-23T04:42:32;145462.25;;;5.20;100.00
6938;BME280;40040;42.706;23.372;2023-03-23T04:45:00;145468.44;;;5.22;100.00
6938;BME280;40040;42.706;23.372;2023-03-23T04:47:28;145421.75;;;5.03;100.00
6938;BME280;40040;42.706;23.372;2023-03-23T04:49:55;145491.75;;;5.32;100.00
6938;BME280;40040;42.706;23.372;2023-03-23T04:52:22;145502.81;;;5.36;100.00
6938;BME280;40040;42.706;23.372;2023-03-23T04:54:50;145521.28;;;5.44;100.00
6938;BME280;40040;42.706;23.372;2023-03-23T04:57:17;145468.44;;;5.22;100.00
6938;BME280;40040;42.706;23.372;2023-03-23T04:59:44;145518.78;;;5.43;100.00
6938;BME280;40040;42.706;23.372;2023-03-23T05:02:12;145507.75;;;5.38;100.00
6938;BME280;40040;42.706;23.372;2023-03-23T05:04:39;145523.72;;;5.45;100.00
6938;BME280;40040;42.706;23.372;2023-03-23T05:07:07;145522.47;;;5.44;100.00
6938;BME280;40040;42.706;23.372;2023-03-23T05:09:34;145511.44;;;5.40;100.00
6938;BME280;40040;42.706;23.372;2023-03-23T05:12:04;145517.53;;;5.42;100.00
6938;BME280;40040;42.706;23.372;2023-03-23T05:14:31;145553.19;;;5.57;100.00
6938;BME280;40040;42.706;23.372;2023-03-23T05:16:58;145521.28;;;5.44;100.00
6938;BME280;40040;42.706;23.372;2023-03-23T05:19:27;145533.53;;;5.49;100.00
6938;BME280;40040;42.706;23.372;2023-03-23T05:21:56;145474.53;;;5.25;100.00
6938;BME280;40040;42.706;23.372;2023-03-23T05:24:28;145544.59;;;5.53;100.00
6938;BME280;40040;42.706;23.372;2023-03-23T05:26:56;145537.22;;;5.50;100.00
6938;BME280;40040;42.706;23.372;2023-03-23T05:29:23;145549.50;;;5.55;100.00
6938;BME280;40040;42.706;23.372;2023-03-23T05:31:51;145544.59;;;5.53;100.00
6938;BME280;40040;42.706;23.372;2023-03-23T05:34:21;145550.75;;;5.56;100.00
6938;BME280;40040;42.706;23.372;2023-03-23T05:36:49;145549.50;;;5.55;100.00
6938;BME280;40040;42.706;23.372;2023-03-23T05:39:18;145553.19;;;5.57;100.00
6938;BME280;40040;42.706;23.372;2023-03-23T05:41:45;145575.31;;;5.66;100.00
6938;BME280;40040;42.706;23.372;2023-03-23T05:44:12;145523.72;;;5.45;100.00
6938;BME280;40040;42.706;23.372;2023-03-23T05:46:39;145489.31;;;5.31;100.00
6938;BME280;40040;42.706;23.372;2023-03-23T05:49:05;145572.84;;;5.65;100.00
6938;BME280;40040;42.706;23.372;2023-03-23T05:51:33;145564.22;;;5.61;100.00
6938;BME280;40040;42.706;23.372;2023-03-23T05:54:01;145566.72;;;5.62;100.00
6938;BME280;40040;42.706;23.372;2023-03-23T05:56:28;145571.63;;;5.64;100.00
6938;BME280;40040;42.706;23.372;2023-03-23T05:58:56;145559.34;;;5.59;100.00
6938;BME280;40040;42.706;23.372;2023-03-23T06:01:23;145564.22;;;5.61;100.00
6938;BME280;40040;42.706;23.372;2023-03-23T06:03:50;145572.84;;;5.65;100.00
6938;BME280;40040;42.706;23.372;2023-03-23T06:06:19;145607.25;;;5.79;100.00
6938;BME280;40040;42.706;23.372;2023-03-23T06:08:46;145617.13;;;5.83;100.00
6938;BME280;40040;42.706;23.372;2023-03-23T06:11:17;145617.13;;;5.83;100.00
6938;BME280;40040;42.706;23.372;2023-03-23T06:13:44;145644.19;;;5.94;100.00
6938;BME280;40040;42.706;23.372;2023-03-23T06:16:11;145668.78;;;6.04;100.00
6938;BME280;40040;42.706;23.372;2023-03-23T06:18:37;145668.78;;;6.04;100.00
6938;BME280;40040;42.706;23.372;2023-03-23T06:21:06;145674.88;;;6.07;100.00
6938;BME280;40040;42.706;23.372;2023-03-23T06:23:33;145658.91;;;6.00;100.00
6938;BME280;40040;42.706;23.372;2023-03-23T06:26:02;145720.41;;;6.25;100.00
6938;BME280;40040;42.706;23.372;2023-03-23T06:28:32;145708.13;;;6.20;100.00
6938;BME280;40040;42.706;23.372;2023-03-23T06:30:59;145737.63;;;6.32;100.00
6938;BME280;40040;42.706;23.372;2023-03-23T06:33:26;145767.13;;;6.44;100.00
6938;BME280;40040;42.706;23.372;2023-03-23T06:35:53;145822.47;;;6.67;100.00
6938;BME280;40040;42.706;23.372;2023-03-23T06:38:21;145855.66;;;6.80;100.00
6938;BME280;40040;42.706;23.372;2023-03-23T06:40:48;145855.66;;;6.80;100.00
6938;BME280;40040;42.706;23.372;2023-03-23T06:43:14;145917.19;;;7.06;100.00
6938;BME280;40040;42.706;23.372;2023-03-23T06:45:43;145930.72;;;7.11;100.00
6938;BME280;40040;42.706;23.372;2023-03-23T06:48:09;145963.94;;;7.25;100.00
6938;BME280;40040;42.706;23.372;2023-03-23T06:50:36;146013.13;;;7.45;100.00
6938;BME280;40040;42.706;23.372;2023-03-23T06:53:03;146050.09;;;7.60;100.00
6938;BME280;40040;42.706;23.372;2023-03-23T06:55:30;146103.00;;;7.81;100.00
6938;BME280;40040;42.706;23.372;2023-03-23T06:57:57;146141.16;;;7.97;100.00
6938;BME280;40040;42.706;23.372;2023-03-23T07:00:25;146195.34;;;8.19;100.00
6938;BME280;40040;42.706;23.372;2023-03-23T07:02:53;146249.56;;;8.41;100.00
6938;BME280;40040;42.706;23.372;2023-03-23T07:05:20;146238.50;;;8.37;100.00
6938;BME280;40040;42.706;23.372;2023-03-23T07:07:47;146325.94;;;8.72;100.00
6938;BME280;40040;42.706;23.372;2023-03-23T07:10:14;146377.69;;;8.93;100.00
6938;BME280;40040;42.706;23.372;2023-03-23T07:12:41;146423.25;;;9.12;100.00
6938;BME280;40040;42.706;23.372;2023-03-23T07:15:09;146470.09;;;9.31;100.00
6938;BME280;40040;42.706;23.372;2023-03-23T07:17:38;146528.06;;;9.55;100.00
6938;BME280;40040;42.706;23.372;2023-03-23T07:20:07;146574.91;;;9.74;100.00
6938;BME280;40040;42.706;23.372;2023-03-23T07:22:34;146547.75;;;9.63;100.00
6938;BME280;40040;42.706;23.372;2023-03-23T07:25:01;146645.16;;;10.02;100.00
6938;BME280;40040;42.706;23.372;2023-03-23T07:27:28;146624.19;;;9.94;100.00
6938;BME280;40040;42.706;23.372;2023-03-23T07:29:54;146693.31;;;10.22;100.00
6938;BME280;40040;42.706;23.372;2023-03-23T07:32:23;146717.97;;;10.32;100.00
6938;BME280;40040;42.706;23.372;2023-03-23T07:34:50;146745.13;;;10.43;100.00
6938;BME280;40040;42.706;23.372;2023-03-23T07:37:19;146777.22;;;10.56;100.00
6938;BME280;40040;42.706;23.372;2023-03-23T07:39:45;146787.06;;;10.60;100.00
6938;BME280;40040;42.706;23.372;2023-03-23T07:42:12;146804.34;;;10.67;100.00
6938;BME280;40040;42.706;23.372;2023-03-23T07:44:39;146840.13;;;10.82;100.00
6938;BME280;40040;42.706;23.372;2023-03-23T07:47:06;146848.78;;;10.85;100.00
6938;BME280;40040;42.706;23.372;2023-03-23T07:49:33;146919.16;;;11.14;100.00
6938;BME280;40040;42.706;23.372;2023-03-23T07:52:00;146942.56;;;11.23;100.00
6938;BME280;40040;42.706;23.372;2023-03-23T07:54:29;146954.91;;;11.28;100.00
6938;BME280;40040;42.706;23.372;2023-03-23T07:56:56;146959.84;;;11.30;100.00
6938;BME280;40040;42.706;23.372;2023-03-23T07:59:23;146979.59;;;11.38;100.00
6938;BME280;40040;42.706;23.372;2023-03-23T08:01:50;147009.22;;;11.51;100.00
6938;BME280;40040;42.706;23.372;2023-03-23T08:04:17;146998.13;;;11.46;100.00
6938;BME280;40040;42.706;23.372;2023-03-23T08:06:44;147043.84;;;11.65;100.00
6938;BME280;40040;42.706;23.372;2023-03-23T08:09:11;147036.38;;;11.62;100.00
6938;BME280;40040;42.706;23.372;2023-03-23T08:11:39;146987.03;;;11.42;100.00
6938;BME280;40040;42.706;23.372;2023-03-23T08:14:07;146915.41;;;11.12;100.00
6938;BME280;40040;42.706;23.372;2023-03-23T08:16:33;146957.41;;;11.29;100.00
6938;BME280;40040;42.706;23.372;2023-03-23T08:19:01;147058.69;;;11.71;100.00
6938;BME280;40040;42.706;23.372;2023-03-23T08:21:28;147145.13;;;12.06;100.00
6938;BME280;40040;42.706;23.372;2023-03-23T08:23:54;147201.97;;;12.29;100.00
6938;BME280;40040;42.706;23.372;2023-03-23T08:26:21;147187.13;;;12.23;100.00
6938;BME280;40040;42.706;23.372;2023-03-23T08:28:50;147219.25;;;12.36;100.00
6938;BME280;40040;42.706;23.372;2023-03-23T08:31:17;147294.63;;;12.67;100.00
6938;BME280;40040;42.706;23.372;2023-03-23T08:33:44;147409.59;;;13.13;100.00
6938;BME280;40040;42.706;23.372;2023-03-23T08:36:10;147478.84;;;13.41;100.00
6938;BME280;40040;42.706;23.372;2023-03-23T08:38:37;147525.81;;;13.61;100.00
6938;BME280;40040;42.706;23.372;2023-03-23T08:41:05;147614.88;;;13.97;100.00
6938;BME280;40040;42.706;23.372;2023-03-23T08:43:34;147686.69;;;14.26;100.00
6938;BME280;40040;42.706;23.372;2023-03-23T08:46:03;147803.03;;;14.73;100.00
6938;BME280;40040;42.706;23.372;2023-03-23T08:48:34;147864.88;;;14.98;100.00
6938;BME280;40040;42.706;23.372;2023-03-23T08:51:02;147903.25;;;15.14;100.00
6938;BME280;40040;42.706;23.372;2023-03-23T08:53:29;147951.56;;;15.33;100.00
6938;BME280;40040;42.706;23.372;2023-03-23T08:55:56;147972.66;;;15.42;100.00
6938;BME280;40040;42.706;23.372;2023-03-23T08:58:28;147997.41;;;15.52;100.00
6938;BME280;40040;42.706;23.372;2023-03-23T09:00:55;148009.78;;;15.57;95.17
6938;BME280;40040;42.706;23.372;2023-03-23T09:03:24;148003.63;;;15.54;91.22
6938;BME280;40040;42.706;23.372;2023-03-23T09:05:50;148035.78;;;15.67;91.77
6938;BME280;40040;42.706;23.372;2023-03-23T09:08:18;148040.75;;;15.69;84.89
6938;BME280;40040;42.706;23.372;2023-03-23T09:10:46;148006.06;;;15.55;82.66
6938;BME280;40040;42.706;23.372;2023-03-23T09:13:14;148085.38;;;15.88;86.56
6938;BME280;40040;42.706;23.372;2023-03-23T09:15:41;148164.63;;;16.20;82.20
6938;BME280;40040;42.706;23.372;2023-03-23T09:18:08;148157.19;;;16.17;83.56
6938;BME280;40040;42.706;23.372;2023-03-23T09:20:36;148268.78;;;16.62;81.37
6938;BME280;40040;42.706;23.372;2023-03-23T09:23:03;148286.13;;;16.69;78.63
6938;BME280;40040;42.706;23.372;2023-03-23T09:25:30;148247.72;;;16.53;77.59
6938;BME280;40040;42.706;23.372;2023-03-23T09:27:58;148278.69;;;16.66;78.89
6938;BME280;40040;42.706;23.372;2023-03-23T09:30:27;148281.16;;;16.67;78.04
6938;BME280;40040;42.706;23.372;2023-03-23T09:32:54;148231.63;;;16.47;77.92
6938;BME280;40040;42.706;23.372;2023-03-23T09:35:21;148263.81;;;16.60;79.61
6938;BME280;40040;42.706;23.372;2023-03-23T09:37:51;148256.38;;;16.57;76.52
6938;BME280;40040;42.706;23.372;2023-03-23T09:40:21;148340.69;;;16.91;78.07
6938;BME280;40040;42.706;23.372;2023-03-23T09:42:57;148367.94;;;17.02;76.94
6938;BME280;40040;42.706;23.372;2023-03-23T09:45:32;148322.09;;;16.83;75.49
6938;BME280;40040;42.706;23.372;2023-03-23T09:48:26;148298.50;;;16.74;75.55
6938;BME280;40040;42.706;23.372;2023-03-23T09:51:01;148336.94;;;16.89;76.98
6938;BME280;40040;42.706;23.372;2023-03-23T09:53:36;148416.31;;;17.22;75.15
6938;BME280;40040;42.706;23.372;2023-03-23T09:56:10;148503.16;;;17.57;74.74
6938;BME280;40040;42.706;23.372;2023-03-23T09:58:46;148432.41;;;17.28;74.03
6938;BME280;40040;42.706;23.372;2023-03-23T10:01:17;148479.59;;;17.47;73.18
6938;BME280;40040;42.706;23.372;2023-03-23T10:03:47;148432.41;;;17.28;75.91
6938;BME280;40040;42.706;23.372;2023-03-23T10:06:16;148458.47;;;17.39;75.87
6938;BME280;40040;42.706;23.372;2023-03-23T10:08:47;148480.84;;;17.48;75.61
6938;BME280;40040;42.706;23.372;2023-03-23T10:11:23;148483.31;;;17.49;74.31
6938;BME280;40040;42.706;23.372;2023-03-23T10:14:06;148423.72;;;17.25;75.65
6938;BME280;40040;42.706;23.372;2023-03-23T10:16:37;148420.03;;;17.23;76.89
6938;BME280;40040;42.706;23.372;2023-03-23T10:19:11;148421.28;;;17.24;74.73
6938;BME280;40040;42.706;23.372;2023-03-23T10:21:44;148439.84;;;17.31;73.27
6938;BME280;40040;42.706;23.372;2023-03-23T10:24:17;148442.34;;;17.32;73.35
6938;BME280;40040;42.706;23.372;2023-03-23T10:26:55;148513.06;;;17.61;73.03
6938;BME280;40040;42.706;23.372;2023-03-23T10:29:28;148614.81;;;18.02;72.32
6938;BME280;40040;42.706;23.372;2023-03-23T10:31:59;148599.91;;;17.96;69.07
6938;BME280;40040;42.706;23.372;2023-03-23T10:34:32;148663.19;;;18.22;68.72
6938;BME280;40040;42.706;23.372;2023-03-23T10:37:05;148732.69;;;18.50;67.98
6938;BME280;40040;42.706;23.372;2023-03-23T10:39:42;148690.47;;;18.33;67.95
6938;BME280;40040;42.706;23.372;2023-03-23T10:42:11;148697.94;;;18.36;67.94
6938;BME280;40040;42.706;23.372;2023-03-23T10:44:38;148737.66;;;18.52;65.66
6938;BME280;40040;42.706;23.372;2023-03-23T10:47:06;148714.13;;;18.42;65.25
6938;BME280;40040;42.706;23.372;2023-03-23T10:49:37;148797.25;;;18.76;67.90
6938;BME280;40040;42.706;23.372;2023-03-23T10:52:17;148752.59;;;18.58;65.26
6938;BME280;40040;42.706;23.372;2023-03-23T10:54:50;148690.47;;;18.33;65.06
6938;BME280;40040;42.706;23.372;2023-03-23T10:57:22;148714.13;;;18.42;64.99
6938;BME280;40040;42.706;23.372;2023-03-23T10:59:50;148638.34;;;18.12;65.98
6938;BME280;40040;42.706;23.372;2023-03-23T11:02:18;148545.31;;;17.74;66.62
6938;BME280;40040;42.706;23.372;2023-03-23T11:04:55;148453.50;;;17.37;69.17
6938;BME280;40040;42.706;23.372;2023-03-23T11:07:27;148588.75;;;17.91;69.21
6938;BME280;40040;42.706;23.372;2023-03-23T11:09:57;148504.38;;;17.57;66.70
6938;BME280;40040;42.706;23.372;2023-03-23T11:12:33;148422.53;;;17.24;68.46
6938;BME280;40040;42.706;23.372;2023-03-23T11:15:09;148529.22;;;17.67;70.32
6938;BME280;40040;42.706;23.372;2023-03-23T11:17:42;148515.56;;;17.62;67.08
6938;BME280;40040;42.706;23.372;2023-03-23T11:20:12;148598.69;;;17.95;67.89
6938;BME280;40040;42.706;23.372;2023-03-23T11:22:42;148643.31;;;18.14;66.10
6938;BME280;40040;42.706;23.372;2023-03-23T11:25:12;148700.41;;;18.37;66.80
6938;BME280;40040;42.706;23.372;2023-03-23T11:27:40;148792.31;;;18.74;64.24
6938;BME280;40040;42.706;23.372;2023-03-23T11:30:10;148864.31;;;19.03;63.52
6938;BME280;40040;42.706;23.372;2023-03-23T11:32:42;148923.91;;;19.27;62.60
6938;BME280;40040;42.706;23.372;2023-03-23T11:35:16;148941.31;;;19.34;61.08
6938;BME280;40040;42.706;23.372;2023-03-23T11:37:46;148913.94;;;19.23;60.96
6938;BME280;40040;42.706;23.372;2023-03-23T11:40:18;149030.75;;;19.70;60.70
6938;BME280;40040;42.706;23.372;2023-03-23T11:42:47;149181.09;;;20.31;59.96
6938;BME280;40040;42.706;23.372;2023-03-23T11:45:18;149217.16;;;20.46;57.38
6938;BME280;40040;42.706;23.372;2023-03-23T11:47:53;149250.72;;;20.59;58.19
6938;BME280;40040;42.706;23.372;2023-03-23T11:50:24;149191.06;;;20.35;57.24
6938;BME280;40040;42.706;23.372;2023-03-23T11:53:00;149253.22;;;20.60;57.43
6938;BME280;40040;42.706;23.372;2023-03-23T11:55:35;149341.44;;;20.96;56.19
6938;BME280;40040;42.706;23.372;2023-03-23T11:58:11;149316.59;;;20.86;56.05
6938;BME280;40040;42.706;23.372;2023-03-23T12:00:41;149376.31;;;21.10;55.96
6938;BME280;40040;42.706;23.372;2023-03-23T12:03:13;149378.81;;;21.11;53.69
6938;BME280;40040;42.706;23.372;2023-03-23T12:05:45;149426.06;;;21.30;55.32
6938;BME280;40040;42.706;23.372;2023-03-23T12:08:24;149403.69;;;21.21;53.86
6938;BME280;40040;42.706;23.372;2023-03-23T12:11:02;149376.31;;;21.10;55.25
6938;BME280;40040;42.706;23.372;2023-03-23T12:13:45;149336.47;;;20.94;54.73
6938;BME280;40040;42.706;23.372;2023-03-23T12:16:26;149296.72;;;20.78;54.53
6938;BME280;40040;42.706;23.372;2023-03-23T12:18:59;149151.28;;;20.19;56.55
6938;BME280;40040;42.706;23.372;2023-03-23T12:21:34;149084.16;;;19.92;57.24
6938;BME280;40040;42.706;23.372;2023-03-23T12:24:09;149018.31;;;19.65;57.10
6938;BME280;40040;42.706;23.372;2023-03-23T12:26:47;148913.94;;;19.23;58.15
6938;BME280;40040;42.706;23.372;2023-03-23T12:29:37;148818.38;;;18.84;57.45
6938;BME280;40040;42.706;23.372;2023-03-23T12:32:23;148742.66;;;18.54;59.61
6938;BME280;40040;42.706;23.372;2023-03-23T12:35:00;148660.69;;;18.21;60.25
6938;BME280;40040;42.706;23.372;2023-03-23T12:37:43;148787.34;;;18.72;60.31
6938;BME280;40040;42.706;23.372;2023-03-23T12:40:22;148863.06;;;19.02;59.45
6938;BME280;40040;42.706;23.372;2023-03-23T12:42:59;148931.38;;;19.30;61.94
6938;BME280;40040;42.706;23.372;2023-03-23T12:46:01;149023.31;;;19.67;58.50
6938;BME280;40040;42.706;23.372;2023-03-23T12:48:33;149073.00;;;19.87;55.83
6938;BME280;40040;42.706;23.372;2023-03-23T12:51:09;149054.34;;;19.80;57.41
6938;BME280;40040;42.706;23.372;2023-03-23T12:53:43;149075.47;;;19.88;56.90
6938;BME280;40040;42.706;23.372;2023-03-23T12:56:15;149056.81;;;19.81;56.64
6938;BME280;40040;42.706;23.372;2023-03-23T12:58:46;149028.28;;;19.69;57.57
6938;BME280;40040;42.706;23.372;2023-03-23T13:01:16;148918.91;;;19.25;57.88
6938;BME280;40040;42.706;23.372;2023-03-23T13:03:49;148858.06;;;19.00;58.57
6938;BME280;40040;42.706;23.372;2023-03-23T13:06:31;148845.66;;;18.95;59.60